Time;durP1;ratioP1;P1;durP2;ratioP2;P2;SDS_P1;SDS_P2;PMS_P1;PMS_P2;Temp;Humidity;BMP_temperature;BMP_pressure;BME280_temperature;BME280_humidity;BME280_pressure;Samples;Min_cycle;Max_cycle;Signal;HPM_P1;HPM_P2
2021/12/06 01:16:29;;;;;;;39.20;24.23;;;;;;;2.92;74.93;100682.16;1813737;79;28348;-61
2021/12/06 01:19:37;;;;;;;38.60;23.02;;;;;;;2.82;74.79;100671.21;1709070;83;21343;-57
2021/12/06 01:22:51;;;;;;;38.40;23.60;;;;;;;2.72;74.98;100669.36;1736401;82;21424;-58
2021/12/06 01:26:26;;;;;;;39.88;22.52;;;;;;;2.63;75.04;100672.27;1736672;82;21378;-57
2021/12/06 01:29:38;;;;;;;39.30;22.32;;;;;;;2.55;75.16;100684.16;1736467;82;21370;-58
2021/12/06 01:39:14;;;;;;;36.88;23.83;;;;;;;2.41;75.19;100674.06;1736475;82;21373;-57
2021/12/06 01:42:19;;;;;;;39.30;23.80;;;;;;;2.40;75.40;100677.24;1736981;82;21179;-57
2021/12/06 01:45:25;;;;;;;39.15;23.07;;;;;;;2.38;75.42;100683.75;1764486;81;21200;-58
2021/12/06 01:48:32;;;;;;;39.18;23.67;;;;;;;2.36;75.44;100678.95;1765572;81;21402;-57
2021/12/06 01:51:37;;;;;;;40.28;23.90;;;;;;;2.25;75.33;100677.55;1770180;81;21314;-57
2021/12/06 01:54:43;;;;;;;37.80;22.67;;;;;;;2.16;75.58;100678.22;1773636;81;21168;-56
2021/12/06 01:57:50;;;;;;;38.60;23.70;;;;;;;2.08;75.93;100669.88;1773647;81;21385;-57
2021/12/06 02:00:58;;;;;;;39.65;24.55;;;;;;;2.07;76.15;100680.27;1773656;81;21160;-58
2021/12/06 02:04:06;;;;;;;38.20;23.52;;;;;;;2.06;76.37;100674.52;1756181;81;21389;-58
2021/12/06 02:07:16;;;;;;;39.20;24.90;;;;;;;2.10;76.63;100671.94;1773588;81;21188;-58
2021/12/06 02:10:21;;;;;;;37.28;23.32;;;;;;;2.10;76.57;100674.64;1773316;81;21342;-58
2021/12/06 02:13:32;;;;;;;39.88;25.68;;;;;;;2.08;76.70;100676.63;1773303;80;21279;-58
2021/12/06 02:16:53;;;;;;;44.63;24.95;;;;;;;2.06;77.04;100675.86;1760446;81;21242;-57
2021/12/06 02:19:48;;;;;;;40.75;26.40;;;;;;;2.06;77.16;100673.16;1773114;81;21326;-58
2021/12/06 02:22:53;;;;;;;43.48;25.92;;;;;;;2.11;77.31;100669.64;1773047;81;21361;-58
2021/12/06 02:25:58;;;;;;;41.00;26.20;;;;;;;2.14;77.32;100674.80;1773034;81;21422;-58
2021/12/06 02:29:04;;;;;;;43.83;25.68;;;;;;;2.18;77.51;100681.20;1757200;81;21481;-57
2021/12/06 02:32:13;;;;;;;42.78;26.62;;;;;;;2.23;77.50;100670.05;1755389;81;21172;-57
2021/12/06 02:35:22;;;;;;;43.08;25.97;;;;;;;2.20;77.15;100673.86;1756171;81;21327;-57
2021/12/06 02:38:28;;;;;;;42.78;25.15;;;;;;;2.14;77.38;100668.05;1773028;81;21350;-57
2021/12/06 02:41:33;;;;;;;41.70;26.15;;;;;;;2.16;77.60;100672.83;1773045;81;21354;-58
2021/12/06 02:44:39;;;;;;;39.40;25.05;;;;;;;2.22;77.76;100673.73;1773015;81;21204;-58
2021/12/06 02:47:46;;;;;;;40.00;24.35;;;;;;;2.26;77.63;100673.86;1773028;81;21350;-59
2021/12/06 02:50:58;;;;;;;38.40;22.50;;;;;;;2.25;77.64;100674.34;1773044;81;21319;-58
2021/12/06 02:54:04;;;;;;;40.43;24.12;;;;;;;2.28;77.68;100678.67;1773069;81;21354;-58
2021/12/06 03:00:19;;;;;;;38.20;22.95;;;;;;;2.21;77.61;100676.05;1773025;81;21370;-58
2021/12/06 03:03:26;;;;;;;42.05;23.90;;;;;;;2.19;77.75;100667.22;1773076;81;21176;-58
2021/12/06 03:06:33;;;;;;;38.35;24.50;;;;;;;2.20;77.92;100668.45;1771793;81;21352;-57
2021/12/06 03:09:40;;;;;;;40.10;23.92;;;;;;;2.23;77.97;100672.75;1771525;81;21329;-58
2021/12/06 03:12:49;;;;;;;42.75;24.45;;;;;;;2.26;78.05;100667.11;1771535;81;21908;-58
2021/12/06 03:15:56;;;;;;;39.33;23.45;;;;;;;2.27;77.98;100674.22;1771383;81;21442;-56
2021/12/06 03:19:04;;;;;;;38.58;23.47;;;;;;;2.26;77.95;100675.21;1771145;81;21368;-57
2021/12/06 03:22:11;;;;;;;38.98;24.47;;;;;;;2.30;78.15;100674.02;1771416;81;21230;-58
2021/12/06 03:25:19;;;;;;;39.45;23.00;;;;;;;2.33;78.07;100676.48;1771338;81;21315;-58
2021/12/06 03:28:26;;;;;;;38.70;24.10;;;;;;;2.33;77.99;100679.19;1771347;81;21203;-58
2021/12/06 03:31:31;;;;;;;40.50;23.12;;;;;;;2.34;77.89;100676.84;1751188;81;21187;-58
2021/12/06 03:34:37;;;;;;;35.50;22.52;;;;;;;2.31;77.89;100665.80;1771489;81;21337;-57
2021/12/06 03:37:42;;;;;;;38.85;23.02;;;;;;;2.31;78.05;100661.75;1771462;81;21383;-58
2021/12/06 03:40:49;;;;;;;37.45;22.93;;;;;;;2.38;78.17;100666.20;1771401;81;21325;-57
2021/12/06 03:43:55;;;;;;;34.50;21.50;;;;;;;2.40;78.15;100673.19;1771094;81;21340;-58
2021/12/06 03:47:07;;;;;;;36.98;22.58;;;;;;;2.39;77.82;100668.78;1771444;81;21293;-58
2021/12/06 03:50:16;;;;;;;36.15;21.97;;;;;;;2.33;77.94;100668.38;1771487;81;21348;-57
2021/12/06 03:53:22;;;;;;;36.25;22.35;;;;;;;2.36;78.15;100666.80;1755188;81;21842;-59
2021/12/06 03:56:28;;;;;;;35.65;22.50;;;;;;;2.41;78.21;100675.41;1771398;81;21309;-59
2021/12/06 03:59:34;;;;;;;40.20;23.73;;;;;;;2.40;77.94;100679.95;1771368;81;21372;-58
2021/12/06 04:02:39;;;;;;;36.63;22.90;;;;;;;2.38;77.98;100675.66;1771298;81;21361;-58
2021/12/06 04:05:46;;;;;;;38.48;22.75;;;;;;;2.39;78.17;100667.91;1771678;80;21810;-58
2021/12/06 04:08:52;;;;;;;36.40;21.85;;;;;;;2.45;78.34;100672.36;1770932;81;21341;-59
2021/12/06 04:11:58;;;;;;;37.33;23.67;;;;;;;2.50;78.33;100672.00;1755443;81;21325;-58
2021/12/06 04:15:04;;;;;;;35.05;22.00;;;;;;;2.51;78.08;100669.66;1771366;81;21227;-58
2021/12/06 04:18:11;;;;;;;36.23;21.27;;;;;;;2.51;78.00;100675.06;1767818;81;21230;-58
2021/12/06 04:21:16;;;;;;;37.42;23.10;;;;;;;2.45;77.91;100679.59;1766306;81;21230;-59
2021/12/06 04:24:23;;;;;;;38.40;23.10;;;;;;;2.47;78.10;100681.69;1766179;81;21589;-57
2021/12/06 04:27:30;;;;;;;33.38;21.97;;;;;;;2.44;78.00;100686.82;1766155;81;21210;-57
2021/12/06 04:30:36;;;;;;;36.48;22.35;;;;;;;2.43;78.03;100697.74;1766129;81;21190;-56
2021/12/06 04:33:43;;;;;;;40.65;22.15;;;;;;;2.44;78.17;100695.44;1766048;81;21282;-56
2021/12/06 04:36:51;;;;;;;37.40;22.37;;;;;;;2.42;78.12;100699.61;1765821;80;21186;-57
2021/12/06 04:39:58;;;;;;;39.25;22.25;;;;;;;2.40;78.14;100697.50;1766658;81;21225;-57
2021/12/06 04:43:04;;;;;;;37.42;22.02;;;;;;;2.40;78.27;100689.88;1766138;81;21301;-57
2021/12/06 04:46:10;;;;;;;37.38;22.87;;;;;;;2.44;78.44;100695.44;1766290;80;21207;-57
2021/12/06 04:49:10;;;;;;;36.98;22.25;;;;;;;2.48;78.45;100699.61;1766882;80;21337;-58
2021/12/06 04:52:18;;;;;;;37.73;22.40;;;;;;;2.50;78.45;100689.56;1766317;80;21247;-57
2021/12/06 04:55:35;;;;;;;34.90;22.17;;;;;;;2.47;78.39;100690.67;1766261;80;21253;-58
2021/12/06 04:58:43;;;;;;;38.58;23.18;;;;;;;2.47;78.41;100687.09;1766160;81;21191;-58
2021/12/06 05:01:49;;;;;;;39.25;23.67;;;;;;;2.43;78.34;100686.94;1766582;80;21175;-57
2021/12/06 05:05:01;;;;;;;38.28;22.82;;;;;;;2.39;78.43;100689.52;1766080;81;21750;-57
2021/12/06 05:08:14;;;;;;;40.00;23.90;;;;;;;2.36;78.60;100691.94;1766097;81;21214;-57
2021/12/06 05:11:19;;;;;;;;;;;;;;;2.37;78.63;100691.47;1769093;80;21265;-59
2021/12/06 05:14:24;;;;;;;38.50;23.57;;;;;;;2.35;78.67;100694.77;1767372;81;20223;-58
2021/12/06 05:17:29;;;;;;;37.55;22.80;;;;;;;2.31;78.79;100694.64;1767830;81;21347;-58
2021/12/06 05:20:37;;;;;;;40.17;24.95;;;;;;;2.30;78.92;100698.33;1763111;80;21720;-57
2021/12/06 05:23:44;;;;;;;53.63;30.27;;;;;;;2.30;79.07;100706.43;1763156;81;21238;-59
2021/12/06 05:26:51;;;;;;;53.42;31.37;;;;;;;2.33;79.20;100703.50;1763095;81;21253;-57
2021/12/06 05:30:01;;;;;;;47.20;27.13;;;;;;;2.36;79.35;100705.95;1763223;81;21324;-57
2021/12/06 05:33:06;;;;;;;40.10;24.70;;;;;;;2.40;79.49;100712.36;1763025;81;21277;-57
2021/12/06 05:36:13;;;;;;;43.30;24.40;;;;;;;2.44;79.36;100712.48;1762859;81;21194;-59
2021/12/06 05:39:19;;;;;;;46.53;25.17;;;;;;;2.49;79.44;100702.20;1746495;81;21329;-58
2021/12/06 05:42:26;;;;;;;45.63;26.55;;;;;;;2.58;79.54;100701.99;1762817;81;21341;-57
2021/12/06 05:45:36;;;;;;;47.80;26.33;;;;;;;2.63;79.37;100697.94;1764492;81;21830;-58
2021/12/06 05:48:42;;;;;;;52.95;30.12;;;;;;;2.61;79.19;100700.41;1758201;80;21368;-58
2021/12/06 05:51:48;;;;;;;49.27;28.95;;;;;;;2.67;79.33;100699.92;1761548;81;21360;-58
2021/12/06 05:54:53;;;;;;;57.73;31.17;;;;;;;2.74;79.27;100693.08;1750348;81;21324;-58
2021/12/06 05:58:00;;;;;;;50.75;27.15;;;;;;;2.81;79.17;100692.95;1758175;81;21571;-58
2021/12/06 06:01:05;;;;;;;45.73;26.48;;;;;;;2.86;79.04;100690.77;1757836;81;21250;-58
2021/12/06 06:04:12;;;;;;;49.90;29.20;;;;;;;2.88;78.84;100696.92;1760172;81;21218;-58
2021/12/06 06:07:17;;;;;;;41.68;25.23;;;;;;;2.80;78.46;100692.59;1760079;81;21221;-58
2021/12/06 06:10:24;;;;;;;47.23;27.48;;;;;;;2.77;78.71;100691.48;1757166;80;21214;-58
2021/12/06 06:13:30;;;;;;;53.52;28.27;;;;;;;2.80;78.77;100692.59;1759373;81;21568;-58
2021/12/06 06:16:51;;;;;;;44.08;24.77;;;;;;;2.85;78.85;100699.86;1759220;81;21739;-58
2021/12/06 06:19:57;;;;;;;42.10;24.12;;;;;;;2.91;78.88;100696.68;1751973;80;21240;-58
2021/12/06 06:23:02;;;;;;;40.70;24.20;;;;;;;2.95;78.68;100691.39;1725891;82;21230;-59
2021/12/06 06:26:07;;;;;;;38.73;23.18;;;;;;;2.94;78.53;100695.08;1730394;82;21766;-58
2021/12/06 06:29:13;;;;;;;40.28;23.80;;;;;;;2.96;78.52;100701.23;1734502;81;21213;-57
2021/12/06 06:32:18;;;;;;;45.83;26.12;;;;;;;2.97;78.59;100708.36;1697279;84;21416;-58
2021/12/06 06:35:24;;;;;;;43.30;25.15;;;;;;;3.00;78.45;100712.17;1705295;84;21738;-58
2021/12/06 06:38:32;;;;;;;44.67;25.35;;;;;;;2.93;78.34;100725.81;1727776;82;21230;-58
2021/12/06 06:41:36;;;;;;;42.33;25.02;;;;;;;2.95;78.59;100727.89;1734287;82;21202;-58
2021/12/06 06:44:43;;;;;;;36.68;22.58;;;;;;;2.98;78.59;100724.97;1710027;81;21202;-58
2021/12/06 06:47:49;;;;;;;42.65;24.70;;;;;;;2.96;78.61;100721.04;1704975;83;21246;-57
2021/12/06 06:50:54;;;;;;;42.98;23.47;;;;;;;3.00;78.69;100732.45;1715543;82;21222;-56
2021/12/06 06:54:00;;;;;;;38.92;23.10;;;;;;;2.99;78.58;100740.20;1732248;81;21347;-57
2021/12/06 06:57:06;;;;;;;36.42;22.05;;;;;;;2.92;78.55;100745.22;1723896;83;21310;-57
2021/12/06 07:00:16;;;;;;;32.90;20.80;;;;;;;2.89;78.80;100742.76;1719698;82;22086;-58
2021/12/06 07:03:24;;;;;;;40.83;22.85;;;;;;;2.94;78.97;100750.03;1712051;82;21252;-56
2021/12/06 07:06:33;;;;;;;36.53;21.27;;;;;;;2.96;79.09;100745.37;1729942;82;21280;-58
2021/12/06 07:09:41;;;;;;;35.48;22.13;;;;;;;3.05;79.17;100745.13;1706625;81;21216;-58
2021/12/06 07:12:50;;;;;;;45.83;27.25;;;;;;;3.14;79.21;100738.98;1724373;82;21280;-58
2021/12/06 07:15:55;;;;;;;41.30;23.83;;;;;;;3.19;78.96;100739.50;1726729;81;21205;-58
2021/12/06 07:19:04;;;;;;;34.27;22.10;;;;;;;3.18;78.79;100747.73;1731969;81;21198;-57
2021/12/06 07:22:12;;;;;;;35.92;21.57;;;;;;;3.23;78.81;100758.58;1734790;77;21206;-57
2021/12/06 07:25:18;;;;;;;32.55;20.12;;;;;;;3.25;78.54;100757.95;1757086;81;21198;-59
2021/12/06 07:28:23;;;;;;;34.03;20.95;;;;;;;3.24;78.47;100765.70;1753327;81;21204;-57
2021/12/06 07:31:32;;;;;;;36.08;22.02;;;;;;;3.24;78.53;100756.71;1752569;81;21718;-57
2021/12/06 07:34:43;;;;;;;33.30;21.05;;;;;;;3.30;78.67;100760.31;1759089;81;21310;-57
2021/12/06 07:37:51;;;;;;;39.18;22.20;;;;;;;3.36;78.59;100759.34;1754247;81;21394;-57
2021/12/06 07:40:55;;;;;;;38.85;21.75;;;;;;;3.39;78.46;100764.52;1753323;81;21545;-58
2021/12/06 07:44:03;;;;;;;33.25;21.05;;;;;;;3.41;78.34;100764.39;1753854;80;21241;-56
2021/12/06 07:47:08;;;;;;;32.10;20.30;;;;;;;3.45;78.37;100764.02;1753114;81;21249;-59
2021/12/06 07:50:18;;;;;;;30.35;19.95;;;;;;;3.53;78.41;100760.70;1711742;83;21207;-58
2021/12/06 07:53:24;;;;;;;30.43;19.60;;;;;;;3.58;78.13;100763.91;1691173;83;21174;-58
2021/12/06 07:56:31;;;;;;;27.93;17.67;;;;;;;3.62;78.13;100751.34;1694163;84;21217;-59
2021/12/06 07:59:42;;;;;;;34.50;21.70;;;;;;;3.67;78.09;100745.08;1677823;83;21198;-58
2021/12/06 08:02:55;;;;;;;33.92;20.05;;;;;;;3.71;77.96;100743.00;1693956;83;21813;-57
2021/12/06 08:06:20;;;;;;;35.80;20.90;;;;;;;3.70;77.85;100735.36;1694001;84;21199;-58
2021/12/06 08:09:48;;;;;;;33.55;20.08;;;;;;;3.70;77.75;100741.25;1734952;81;21598;-59
2021/12/06 08:12:57;;;;;;;32.00;19.42;;;;;;;3.70;77.79;100738.06;1749527;81;21496;-58
2021/12/06 08:16:05;;;;;;;30.35;19.10;;;;;;;3.72;77.73;100737.45;1748665;81;21172;-58
2021/12/06 08:19:10;;;;;;;33.83;21.70;;;;;;;3.74;77.77;100734.11;1754988;81;21208;-58
2021/12/06 08:22:17;;;;;;;32.38;19.25;;;;;;;3.77;77.81;100734.37;1754516;81;21196;-58
2021/12/06 08:25:21;;;;;;;33.30;19.55;;;;;;;3.81;77.75;100723.64;1753609;81;21251;-58
2021/12/06 08:28:29;;;;;;;32.53;19.27;;;;;;;3.87;77.77;100718.59;1755027;81;21207;-57
2021/12/06 08:31:34;;;;;;;29.77;18.77;;;;;;;3.90;77.70;100714.28;1756760;80;21192;-57
2021/12/06 08:34:41;;;;;;;30.02;18.77;;;;;;;3.97;77.81;100720.92;1755943;81;21161;-57
2021/12/06 08:37:47;;;;;;;27.32;16.85;;;;;;;4.01;77.62;100712.91;1753794;81;21778;-59
2021/12/06 08:40:52;;;;;;;29.48;17.37;;;;;;;4.04;77.50;100711.30;1758205;81;21557;-59
2021/12/06 08:43:57;;;;;;;38.50;24.75;;;;;;;4.08;77.62;100714.61;1748348;81;21219;-58
2021/12/06 08:47:03;;;;;;;26.80;16.70;;;;;;;4.17;77.73;100707.11;1763526;81;21359;-58
2021/12/06 08:50:09;;;;;;;27.62;16.60;;;;;;;4.21;77.56;100706.72;1746743;81;21652;-58
2021/12/06 08:53:14;;;;;;;27.93;17.95;;;;;;;4.29;77.40;100700.65;1739913;81;21542;-56
2021/12/06 08:56:19;;;;;;;26.65;17.00;;;;;;;4.31;77.18;100696.81;1744946;81;21161;-56
2021/12/06 08:59:25;;;;;;;25.08;16.25;;;;;;;4.25;76.80;100685.14;1749002;81;21211;-57
2021/12/06 09:02:30;;;;;;;26.60;16.87;;;;;;;4.22;76.78;100685.39;1755008;81;21173;-56
2021/12/06 09:05:41;;;;;;;25.75;16.17;;;;;;;4.26;77.08;100673.81;1747525;81;21247;-57
2021/12/06 09:08:47;;;;;;;27.82;16.82;;;;;;;4.31;76.99;100675.65;1756691;81;21739;-58
2021/12/06 09:11:53;;;;;;;31.33;18.07;;;;;;;4.31;76.96;100679.20;1756758;81;21263;-57
2021/12/06 09:14:59;;;;;;;26.77;15.40;;;;;;;4.39;77.04;100673.98;1746590;81;21561;-57
2021/12/06 09:18:07;;;;;;;27.42;16.17;;;;;;;4.44;76.87;100669.05;1742499;81;21198;-59
2021/12/06 09:21:17;;;;;;;23.98;14.55;;;;;;;4.46;76.72;100673.85;1746202;81;21374;-57
2021/12/06 09:24:26;;;;;;;23.42;15.10;;;;;;;4.46;76.60;100668.43;1749783;79;21206;-56
2021/12/06 09:27:32;;;;;;;26.45;16.70;;;;;;;4.50;76.70;100669.88;1761508;81;21388;-57
2021/12/06 09:30:42;;;;;;;26.05;15.83;;;;;;;4.53;76.55;100672.84;1761773;81;21376;-58
2021/12/06 09:33:52;;;;;;;21.52;14.40;;;;;;;4.49;76.40;100672.23;1747820;81;21640;-56
2021/12/06 09:36:59;;;;;;;25.32;15.23;;;;;;;4.50;76.47;100666.33;1751573;81;22072;-57
2021/12/06 09:40:03;;;;;;;25.37;14.50;;;;;;;4.50;76.39;100667.16;1758342;80;21921;-58
2021/12/06 09:43:11;;;;;;;26.27;16.57;;;;;;;4.45;76.12;100664.02;1748434;81;21264;-58
2021/12/06 09:46:17;;;;;;;25.85;16.02;;;;;;;4.37;76.37;100655.67;1754687;81;21245;-59
2021/12/06 09:49:27;;;;;;;21.97;14.18;;;;;;;4.38;76.56;100656.50;1757712;81;21742;-59
2021/12/06 09:52:32;;;;;;;26.23;15.43;;;;;;;4.40;76.64;100658.12;1755781;80;21258;-57
2021/12/06 09:55:37;;;;;;;26.05;14.85;;;;;;;4.42;76.61;100653.41;1752521;81;21180;-58
2021/12/06 09:58:42;;;;;;;28.10;14.95;;;;;;;4.40;76.60;100656.77;1753665;80;21213;-55
2021/12/06 10:01:53;;;;;;;26.62;15.58;;;;;;;4.44;76.54;100657.34;1758363;81;21238;-57
2021/12/06 10:04:59;;;;;;;27.77;15.43;;;;;;;4.39;76.57;100646.89;1730982;83;21202;-58
2021/12/06 10:08:07;;;;;;;28.83;16.60;;;;;;;4.40;76.66;100648.63;1752856;81;21231;-57
2021/12/06 10:11:14;;;;;;;26.17;15.38;;;;;;;4.40;76.85;100641.86;1713072;83;21201;-58
2021/12/06 10:14:20;;;;;;;25.40;15.05;;;;;;;4.47;76.95;100636.26;1748738;82;21217;-57
2021/12/06 10:17:26;;;;;;;25.43;15.25;;;;;;;4.51;77.02;100628.25;1749170;82;21197;-58
2021/12/06 10:20:33;;;;;;;24.67;15.45;;;;;;;4.60;76.93;100634.70;1749421;82;21264;-57
2021/12/06 10:23:38;;;;;;;27.60;16.15;;;;;;;4.62;76.69;100627.31;1741968;81;21286;-58
2021/12/06 10:26:44;;;;;;;25.50;15.63;;;;;;;4.60;76.67;100628.80;1682058;84;21758;-56
2021/12/06 10:29:54;;;;;;;22.87;14.45;;;;;;;4.62;76.72;100628.67;1701144;84;21760;-57
2021/12/06 10:33:15;;;;;;;26.12;16.42;;;;;;;4.63;76.66;100633.09;1746762;81;21307;-57
2021/12/06 10:36:22;;;;;;;25.52;15.43;;;;;;;4.56;76.44;100624.65;1752145;81;21287;-58
2021/12/06 10:39:27;;;;;;;23.80;14.30;;;;;;;4.50;76.60;100627.02;1754391;81;21224;-57
2021/12/06 10:42:37;;;;;;;24.07;14.20;;;;;;;4.44;76.65;100628.39;1766597;80;21361;-58
2021/12/06 10:45:47;;;;;;;22.90;14.53;;;;;;;4.36;76.60;100634.13;1787876;80;21338;-57
2021/12/06 10:48:56;;;;;;;24.02;14.78;;;;;;;4.32;76.82;100629.45;1787985;80;21432;-57
2021/12/06 10:52:06;;;;;;;25.77;15.48;;;;;;;4.27;77.03;100626.27;1788038;80;21225;-58
2021/12/06 10:55:15;;;;;;;24.27;14.63;;;;;;;4.26;77.10;100627.27;1788353;80;21927;-57
2021/12/06 10:58:24;;;;;;;23.52;14.10;;;;;;;4.25;77.29;100614.69;1783943;80;21362;-57
2021/12/06 11:01:36;;;;;;;24.75;15.78;;;;;;;4.24;77.48;100617.05;1741898;81;21896;-56
2021/12/06 11:04:43;;;;;;;23.42;15.50;;;;;;;4.21;77.57;100609.18;1765312;81;21438;-58
2021/12/06 11:07:49;;;;;;;24.43;14.98;;;;;;;4.17;77.54;100606.35;1750644;81;21649;-58
2021/12/06 11:11:01;;;;;;;24.43;15.72;;;;;;;4.12;77.84;100600.45;1757464;81;21362;-58
2021/12/06 11:14:22;;;;;;;26.87;16.65;;;;;;;4.17;78.23;100595.52;1729101;82;21207;-57
2021/12/06 11:17:28;;;;;;;26.75;16.02;;;;;;;4.17;78.12;100588.74;1727858;83;21196;-58
2021/12/06 11:20:36;;;;;;;26.82;16.80;;;;;;;4.03;78.37;100591.77;1728733;83;21184;-58
2021/12/06 11:23:43;;;;;;;24.32;15.48;;;;;;;3.99;78.77;100589.45;1731741;82;21355;-59
2021/12/06 11:27:04;;;;;;;28.47;16.67;;;;;;;4.05;79.06;100589.80;1751840;80;21577;-58
2021/12/06 11:30:27;;;;;;;28.65;15.98;;;;;;;4.12;78.88;100588.27;1841387;76;22242;-59
2021/12/06 11:33:40;;;;;;;24.30;14.25;;;;;;;3.97;78.91;100590.93;1751258;80;21212;-57
2021/12/06 11:36:49;;;;;;;28.17;17.17;;;;;;;3.94;79.33;100584.91;1761416;81;21339;-59
2021/12/06 11:40:00;;;;;;;26.10;16.90;;;;;;;3.88;79.45;100588.14;1742324;81;21727;-58
2021/12/06 11:43:12;;;;;;;25.52;15.80;;;;;;;3.91;79.93;100580.63;1747144;81;21370;-58
2021/12/06 11:46:17;;;;;;;;;;;;;;;3.97;80.01;100588.70;1707650;84;21259;-56
2021/12/06 11:49:36;;;;;;;29.98;17.17;;;;;;;3.93;79.72;100596.22;1706060;84;20209;-58
2021/12/06 11:52:42;;;;;;;25.82;16.30;;;;;;;3.88;79.99;100596.26;1725075;83;21387;-59
2021/12/06 11:56:13;;;;;;;25.75;15.32;;;;;;;3.91;80.33;100600.94;1706825;83;21279;-58
2021/12/06 11:59:20;;;;;;;24.57;15.32;;;;;;;3.97;80.39;100598.19;1764417;80;21397;-57
2021/12/06 12:02:49;;;;;;;28.62;16.02;;;;;;;3.95;80.22;100588.84;1770750;80;21660;-58
2021/12/06 12:06:00;;;;;;;25.35;15.30;;;;;;;4.02;80.51;100596.83;1743153;81;21746;-58
2021/12/06 12:09:31;;;;;;;25.30;15.40;;;;;;;4.07;80.37;100588.31;1770750;80;21208;-58
2021/12/06 12:12:39;;;;;;;31.80;18.40;;;;;;;4.03;80.22;100591.77;1762581;80;21546;-58
2021/12/06 12:15:46;;;;;;;24.35;16.48;;;;;;;4.04;80.26;100588.57;1740220;81;21781;-57
2021/12/06 12:18:53;;;;;;;30.72;18.07;;;;;;;4.05;80.21;100584.38;1740287;81;21717;-57
2021/12/06 12:21:59;;;;;;;31.30;18.55;;;;;;;4.04;80.43;100572.32;1738182;82;21804;-57
2021/12/06 12:25:10;;;;;;;33.15;18.52;;;;;;;4.11;80.56;100573.02;1738146;81;21617;-58
2021/12/06 12:28:30;;;;;;;30.08;18.73;;;;;;;4.19;80.58;100573.22;1737334;81;21743;-59
2021/12/06 12:31:30;;;;;;;30.30;18.32;;;;;;;4.25;80.52;100564.56;1713559;82;21548;-57
2021/12/06 12:34:41;;;;;;;34.27;20.55;;;;;;;4.26;80.21;100559.53;1721824;82;21698;-58
2021/12/06 12:37:51;;;;;;;33.63;20.30;;;;;;;4.27;80.04;100560.37;1734979;82;21188;-58
2021/12/06 12:41:02;;;;;;;35.85;21.17;;;;;;;4.27;80.13;100544.11;1720977;82;22169;-57
2021/12/06 12:44:13;;;;;;;37.10;20.08;;;;;;;4.31;80.02;100551.00;1704744;84;21733;-57
2021/12/06 12:47:24;;;;;;;35.63;20.75;;;;;;;4.29;79.86;100550.27;1706464;83;21662;-58
2021/12/06 12:50:30;;;;;;;42.65;22.98;;;;;;;4.23;80.00;100557.05;1706857;83;21215;-58
2021/12/06 12:53:34;;;;;;;40.63;23.67;;;;;;;4.25;80.22;100556.44;1712061;82;21736;-59
2021/12/06 12:56:49;;;;;;;34.67;20.92;;;;;;;4.28;80.18;100549.39;1725517;82;21308;-58
2021/12/06 13:00:01;;;;;;;30.35;19.30;;;;;;;4.30;80.18;100554.20;1724478;82;21222;-58
2021/12/06 13:03:06;;;;;;;35.65;21.15;;;;;;;4.25;80.21;100544.25;1705974;82;21199;-58
2021/12/06 13:06:36;;;;;;;35.25;21.25;;;;;;;4.29;80.40;100548.42;1714692;82;21263;-58
2021/12/06 13:09:41;;;;;;;38.80;21.93;;;;;;;4.36;80.43;100553.66;1737371;82;21189;-58
2021/12/06 13:13:08;;;;;;;37.93;21.68;;;;;;;4.33;80.15;100562.55;1735631;82;21219;-58
2021/12/06 13:20:07;;;;;;;35.88;22.15;;;;;;;4.28;80.33;100558.05;1719974;82;21219;-57
2021/12/06 13:23:05;;;;;;;35.45;20.30;;;;;;;4.26;80.47;100552.76;1722092;82;21266;-57
2021/12/06 13:26:18;;;;;;;35.83;20.23;;;;;;;4.25;80.49;100552.37;1717541;82;21215;-57
2021/12/06 13:29:33;;;;;;;40.73;23.15;;;;;;;4.28;80.71;100548.04;1704807;82;22110;-57
2021/12/06 13:32:51;;;;;;;40.67;23.05;;;;;;;4.33;80.71;100541.73;1693876;82;21215;-57
2021/12/06 13:36:05;;;;;;;35.52;19.80;;;;;;;4.33;80.57;100545.80;1733712;82;21761;-57
2021/12/06 13:39:15;;;;;;;39.03;20.57;;;;;;;4.32;80.52;100541.87;1714946;82;21196;-57
2021/12/06 13:42:24;;;;;;;38.02;19.65;;;;;;;4.27;80.48;100535.98;1707096;82;21373;-57
2021/12/06 13:45:33;;;;;;;31.07;19.50;;;;;;;4.26;80.55;100540.56;1710460;82;22240;-57
2021/12/06 13:48:47;;;;;;;31.17;18.85;;;;;;;4.22;80.59;100535.03;1729279;82;21216;-58
2021/12/06 13:52:05;;;;;;;35.52;21.10;;;;;;;4.23;80.75;100550.28;1717324;82;21184;-57
2021/12/06 13:55:40;;;;;;;36.13;19.30;;;;;;;4.28;80.90;100545.33;1704750;82;21259;-58
2021/12/06 13:58:45;;;;;;;36.03;21.57;;;;;;;4.34;80.82;100556.98;1704558;82;21934;-58
2021/12/06 14:01:51;;;;;;;32.10;18.95;;;;;;;4.26;80.55;100557.31;1706108;82;21235;-58
2021/12/06 14:04:58;;;;;;;30.75;18.50;;;;;;;4.26;80.78;100569.02;1703546;84;21185;-59
2021/12/06 14:08:05;;;;;;;29.10;19.27;;;;;;;4.24;80.80;100566.05;1703518;84;21733;-58
2021/12/06 14:11:12;;;;;;;35.68;21.82;;;;;;;4.26;80.91;100562.24;1703687;84;21785;-59
2021/12/06 14:14:20;;;;;;;32.40;20.90;;;;;;;4.26;80.87;100559.53;1706989;82;21223;-57
2021/12/06 14:17:27;;;;;;;34.92;21.35;;;;;;;4.29;80.99;100564.69;1670794;85;21189;-59
2021/12/06 14:20:33;;;;;;;35.50;21.15;;;;;;;4.33;81.04;100559.34;1670751;85;21293;-59
2021/12/06 14:23:40;;;;;;;33.55;20.62;;;;;;;4.39;80.90;100564.75;1658098;85;21321;-60
2021/12/06 14:26:47;;;;;;;30.12;19.23;;;;;;;4.39;80.75;100562.87;1662078;85;21272;-59
2021/12/06 14:30:00;;;;;;;34.20;20.40;;;;;;;4.35;80.65;100552.44;1713651;82;21796;-59
2021/12/06 14:33:07;;;;;;;36.58;24.75;;;;;;;4.31;80.60;100551.00;1745716;80;21193;-59
2021/12/06 14:36:14;;;;;;;33.13;20.40;;;;;;;4.31;80.79;100547.77;1740769;81;21539;-60
2021/12/06 14:39:29;;;;;;;32.33;21.07;;;;;;;4.30;80.73;100558.26;1739844;82;21569;-59
2021/12/06 14:42:35;;;;;;;34.50;21.65;;;;;;;4.27;80.73;100542.75;1741242;81;21287;-59
2021/12/06 14:45:40;;;;;;;30.65;20.60;;;;;;;4.22;80.68;100532.80;1744593;80;21200;-59
2021/12/06 14:48:48;;;;;;;37.00;22.95;;;;;;;4.17;80.90;100537.27;1739949;82;21223;-58
2021/12/06 14:51:55;;;;;;;35.60;21.90;;;;;;;4.15;80.96;100537.92;1745955;81;21215;-58
2021/12/06 14:55:41;;;;;;;34.43;21.33;;;;;;;4.16;81.19;100538.75;1738918;82;21193;-57
2021/12/06 14:58:42;;;;;;;37.08;21.33;;;;;;;4.18;81.29;100540.84;1738311;82;21212;-57
2021/12/06 15:01:47;;;;;;;31.20;20.80;;;;;;;4.18;81.30;100548.49;1739323;82;21200;-56
2021/12/06 15:05:02;;;;;;;32.00;21.12;;;;;;;4.18;81.35;100559.33;1738605;82;21185;-57
2021/12/06 15:08:11;;;;;;;33.40;20.95;;;;;;;4.20;81.42;100555.97;1738911;81;21601;-58
2021/12/06 15:11:22;;;;;;;31.33;20.45;;;;;;;4.23;81.49;100556.22;1739034;82;21324;-58
2021/12/06 15:14:29;;;;;;;31.75;19.87;;;;;;;4.25;81.54;100549.66;1738508;81;21310;-58
2021/12/06 15:17:37;;;;;;;29.60;19.77;;;;;;;4.30;81.52;100540.65;1738946;82;21213;-56
2021/12/06 15:20:42;;;;;;;29.55;19.40;;;;;;;4.28;81.38;100533.14;1739455;82;21188;-56
2021/12/06 15:23:56;;;;;;;31.07;19.92;;;;;;;4.19;81.13;100527.17;1739737;82;21836;-56
2021/12/06 15:27:06;;;;;;;31.52;21.07;;;;;;;4.11;81.36;100531.03;1739925;82;21193;-57
2021/12/06 15:30:17;;;;;;;29.85;18.98;;;;;;;4.14;81.72;100532.12;1750559;80;21150;-58
2021/12/06 15:33:23;;;;;;;32.55;18.95;;;;;;;4.23;81.89;100540.80;1762629;79;21252;-56
2021/12/06 15:36:30;;;;;;;32.05;18.60;;;;;;;4.30;81.89;100540.65;1747967;81;21177;-56
2021/12/06 15:39:37;;;;;;;26.93;17.37;;;;;;;4.31;81.71;100539.64;1751766;80;21327;-57
2021/12/06 15:42:42;;;;;;;29.70;19.32;;;;;;;4.24;81.60;100538.96;1758128;81;21222;-56
2021/12/06 15:45:47;;;;;;;32.48;19.90;;;;;;;4.22;81.68;100538.22;1770586;81;21231;-56
2021/12/06 15:48:54;;;;;;;31.23;19.77;;;;;;;4.20;81.71;100532.94;1770697;81;21249;-56
2021/12/06 15:52:04;;;;;;;33.23;19.90;;;;;;;4.22;81.89;100537.73;1748351;81;22100;-56
2021/12/06 15:55:16;;;;;;;29.40;18.92;;;;;;;4.27;82.07;100536.85;1751094;81;21197;-55